Time;durP1;ratioP1;P1;durP2;ratioP2;P2;SDS_P1;SDS_P2;PMS_P1;PMS_P2;Temp;Humidity;BMP_temperature;BMP_pressure;BME280_temperature;BME280_humidity;BME280_pressure;Samples;Min_cycle;Max_cycle;Signal;HPM_P1;HPM_P2
2023/04/13 00:00:31;;;;;;;;;0.00;0.00;;;;;7.99;75.99;99195.19;5043516;28;10850;-64
2023/04/13 00:02:59;;;;;;;;;3.00;1.00;;;;;7.99;76.34;99205.09;5046235;28;10861;-64
2023/04/13 00:05:26;;;;;;;;;1.00;1.00;;;;;7.97;75.53;99193.75;5031740;28;10955;-65
2023/04/13 00:07:54;;;;;;;;;0.00;0.00;;;;;7.89;77.00;99198.34;5037389;28;10860;-65
2023/04/13 00:10:21;;;;;;;;;0.00;0.00;;;;;7.93;76.71;99188.81;5041138;28;10754;-64
2023/04/13 00:12:49;;;;;;;;;2.25;0.25;;;;;8.01;76.87;99190.41;5036778;28;11543;-65
2023/04/13 00:15:18;;;;;;;;;0.00;0.00;;;;;8.02;76.84;99193.91;5045191;28;10899;-64
2023/04/13 00:17:46;;;;;;;;;0.00;0.00;;;;;8.01;76.37;99193.09;5040293;28;10898;-64
2023/04/13 00:20:13;;;;;;;;;0.00;0.00;;;;;7.96;75.87;99198.31;5055005;28;10937;-64
2023/04/13 00:22:42;;;;;;;;;0.50;0.00;;;;;7.97;76.68;99191.91;5042115;28;10875;-64
2023/04/13 00:25:10;;;;;;;;;1.00;1.00;;;;;7.98;76.62;99182.00;5042983;28;11449;-63
2023/04/13 00:27:41;;;;;;;;;0.00;0.00;;;;;7.99;76.42;99183.66;5038212;28;10749;-63
2023/04/13 00:30:15;;;;;;;;;1.00;0.50;;;;;7.98;76.47;99182.84;5038593;28;10815;-62
2023/04/13 00:32:43;;;;;;;;;1.75;1.00;;;;;8.01;76.69;99187.75;5064532;28;10888;-64
2023/04/13 00:35:12;;;;;;;;;1.00;1.00;;;;;8.05;76.73;99185.44;5038540;28;10892;-64
2023/04/13 00:37:38;;;;;;;;;1.00;1.00;;;;;8.04;76.98;99184.63;5038331;28;10724;-64
2023/04/13 00:40:06;;;;;;;;;1.75;1.00;;;;;8.08;76.54;99185.03;5046259;28;10826;-64
2023/04/13 00:42:33;;;;;;;;;2.75;0.75;;;;;8.06;76.61;99184.41;5033368;28;10940;-64
2023/04/13 00:45:00;;;;;;;;;1.00;1.00;;;;;8.09;76.18;99182.13;5047757;28;10872;-65
2023/04/13 00:47:29;;;;;;;;;1.00;1.00;;;;;8.13;76.38;99179.81;5048771;28;11615;-63
2023/04/13 00:49:59;;;;;;;;;0.00;0.00;;;;;8.14;75.57;99189.50;5030552;28;11117;-65
2023/04/13 00:52:25;;;;;;;;;0.00;0.00;;;;;8.11;76.12;99172.00;5041812;28;11456;-64
2023/04/13 00:54:55;;;;;;;;;2.00;0.00;;;;;8.09;75.31;99186.66;5049805;28;10785;-65
2023/04/13 00:57:24;;;;;;;;;1.00;1.00;;;;;8.07;76.31;99194.94;5047581;28;11018;-65
2023/04/13 00:59:51;;;;;;;;;0.00;0.00;;;;;8.07;75.45;99197.59;5043806;28;10824;-65
2023/04/13 01:02:26;;;;;;;;;0.00;0.00;;;;;8.09;76.08;99190.16;5034312;28;11692;-65
2023/04/13 01:04:56;;;;;;;;;1.00;0.00;;;;;8.11;75.60;99192.63;5044565;28;11471;-65
2023/04/13 01:07:28;;;;;;;;;0.00;0.00;;;;;8.13;74.67;99201.25;5023261;28;10996;-66
2023/04/13 01:10:02;;;;;;;;;0.00;0.00;;;;;8.10;75.32;99204.38;5034090;28;10889;-65
2023/04/13 01:12:45;;;;;;;;;2.00;0.75;;;;;8.11;75.37;99203.34;5046049;28;10723;-65
2023/04/13 01:15:15;;;;;;;;;0.00;0.00;;;;;8.06;75.37;99209.38;5043315;28;10769;-65
2023/04/13 01:17:51;;;;;;;;;0.00;0.00;;;;;8.08;75.16;99209.97;5031967;28;10642;-65
2023/04/13 01:20:24;;;;;;;;;1.00;0.00;;;;;8.09;75.38;99216.13;5033381;28;10804;-65
2023/04/13 01:22:55;;;;;;;;;0.00;0.00;;;;;8.09;75.52;99234.91;5048873;28;10832;-66
2023/04/13 01:25:39;;;;;;;;;0.00;0.00;;;;;8.09;75.71;99242.94;5038333;28;10933;-65
2023/04/13 01:28:12;;;;;;;;;0.00;0.00;;;;;8.10;75.47;99249.94;5037090;28;10713;-65
2023/04/13 01:30:39;;;;;;;;;0.00;0.00;;;;;8.07;76.45;99242.34;5039036;28;10870;-65
2023/04/13 01:33:08;;;;;;;;;0.00;0.00;;;;;8.12;76.46;99246.00;5039046;28;10871;-65
2023/04/13 01:35:37;;;;;;;;;0.00;0.00;;;;;8.19;75.86;99243.28;5047433;28;10676;-65
2023/04/13 01:38:05;;;;;;;;;0.00;0.00;;;;;8.20;76.15;99242.25;5034194;28;10716;-64
2023/04/13 01:40:35;;;;;;;;;0.00;0.00;;;;;8.18;76.21;99245.16;5029186;28;10717;-65
2023/04/13 01:43:02;;;;;;;;;0.00;0.00;;;;;8.18;76.18;99241.63;5021931;28;11443;-66
2023/04/13 01:45:46;;;;;;;;;0.75;0.75;;;;;8.18;76.07;99241.63;5044290;28;10871;-64
2023/04/13 01:48:27;;;;;;;;;1.25;0.25;;;;;8.12;76.49;99253.22;5043981;28;10973;-65
2023/04/13 01:51:06;;;;;;;;;0.00;0.00;;;;;8.04;76.31;99251.63;5027615;28;10732;-65
2023/04/13 01:53:52;;;;;;;;;0.00;0.00;;;;;8.03;76.81;99259.91;5039398;28;10723;-65
2023/04/13 01:56:21;;;;;;;;;0.00;0.00;;;;;7.99;76.82;99264.03;5046894;28;10801;-65
2023/04/13 01:58:57;;;;;;;;;0.50;0.50;;;;;7.96;76.63;99273.31;5025117;28;11436;-65
2023/04/13 02:01:25;;;;;;;;;0.00;0.00;;;;;7.95;77.57;99271.69;5035035;28;10717;-65
2023/04/13 02:03:52;;;;;;;;;1.00;1.00;;;;;7.98;77.36;99275.78;5036995;28;10730;-66
2023/04/13 02:06:19;;;;;;;;;1.00;1.00;;;;;8.02;77.67;99280.50;5046569;28;10720;-65
2023/04/13 02:08:47;;;;;;;;;0.00;0.00;;;;;8.04;77.90;99282.97;5039780;28;10823;-65
2023/04/13 02:11:16;;;;;;;;;0.00;0.00;;;;;8.06;78.01;99287.09;5035005;28;10656;-64
2023/04/13 02:13:43;;;;;;;;;1.00;1.00;;;;;8.10;77.78;99285.63;5053314;28;10736;-64
2023/04/13 02:16:14;;;;;;;;;0.00;0.00;;;;;8.10;77.21;99293.66;5044206;28;10749;-66
2023/04/13 02:18:41;;;;;;;;;0.00;0.00;;;;;8.13;78.16;99295.06;5042694;28;10893;-65
2023/04/13 02:21:08;;;;;;;;;0.00;0.00;;;;;8.14;77.91;99288.66;5043314;28;11476;-65
2023/04/13 02:23:35;;;;;;;;;0.50;0.00;;;;;8.12;77.63;99290.75;5040556;28;10679;-65
2023/04/13 02:26:03;;;;;;;;;1.00;0.00;;;;;8.13;77.96;99305.78;5046638;28;10732;-66
2023/04/13 02:28:30;;;;;;;;;0.75;0.00;;;;;8.11;77.34;99300.66;5051123;28;10646;-65
2023/04/13 02:30:58;;;;;;;;;0.00;0.00;;;;;8.11;77.01;99313.22;5034384;28;10683;-66
2023/04/13 02:33:30;;;;;;;;;0.00;0.00;;;;;8.08;77.21;99314.47;5036231;28;10790;-65
2023/04/13 02:36:02;;;;;;;;;1.75;0.00;;;;;8.07;76.88;99315.50;5043787;28;10707;-66
2023/04/13 02:38:36;;;;;;;;;1.00;0.50;;;;;8.05;76.71;99311.41;5042988;28;10572;-66
2023/04/13 02:41:12;;;;;;;;;0.00;0.00;;;;;8.00;76.61;99313.91;5037772;28;10762;-65
2023/04/13 02:43:38;;;;;;;;;2.00;0.50;;;;;8.00;76.84;99319.28;5051150;28;10693;-65
2023/04/13 02:46:05;;;;;;;;;0.00;0.00;;;;;7.98;76.73;99310.59;5039331;28;10650;-66
2023/04/13 02:48:36;;;;;;;;;0.00;0.00;;;;;7.97;76.91;99323.19;5037148;28;10740;-66
2023/04/13 02:51:04;;;;;;;;;0.00;0.00;;;;;7.91;76.32;99321.38;5054993;28;10737;-67
2023/04/13 02:53:35;;;;;;;;;0.00;0.00;;;;;7.87;76.51;99326.34;5042975;28;10717;-65
2023/04/13 02:56:05;;;;;;;;;0.00;0.00;;;;;7.89;76.19;99332.28;5032654;28;10824;-65
2023/04/13 02:58:33;;;;;;;;;0.00;0.00;;;;;7.86;75.92;99335.41;5041752;28;10805;-65
2023/04/13 03:01:03;;;;;;;;;0.75;0.00;;;;;7.88;76.12;99340.56;5035317;28;10608;-65
2023/04/13 03:03:30;;;;;;;;;1.00;1.00;;;;;7.82;76.17;99341.38;5039736;28;10789;-65
2023/04/13 03:05:57;;;;;;;;;0.00;0.00;;;;;7.79;75.92;99337.31;5046427;28;10750;-65
2023/04/13 03:08:35;;;;;;;;;0.00;0.00;;;;;7.76;75.72;99348.44;5032912;28;10674;-65
2023/04/13 03:11:08;;;;;;;;;0.00;0.00;;;;;7.74;76.58;99355.03;5044651;28;10721;-65
2023/04/13 03:13:39;;;;;;;;;0.00;0.00;;;;;7.72;76.21;99349.91;5042842;28;10786;-65
2023/04/13 03:16:10;;;;;;;;;0.00;0.00;;;;;7.74;75.85;99363.91;5045205;28;10780;-65
2023/04/13 03:18:37;;;;;;;;;0.00;0.00;;;;;7.71;75.74;99369.69;5039130;28;10971;-65
2023/04/13 03:21:06;;;;;;;;;0.00;0.00;;;;;7.67;76.22;99369.28;5037378;28;11132;-65
2023/04/13 03:23:39;;;;;;;;;0.00;0.00;;;;;7.66;75.76;99378.34;5032035;28;10746;-65
2023/04/13 03:26:10;;;;;;;;;0.00;0.00;;;;;7.66;76.24;99378.34;5049149;28;10792;-65
2023/04/13 03:28:36;;;;;;;;;0.00;0.00;;;;;7.66;76.08;99385.56;5040695;28;10803;-66
2023/04/13 03:31:03;;;;;;;;;0.00;0.00;;;;;7.65;76.29;99382.03;5036536;28;10701;-66
2023/04/13 03:33:34;;;;;;;;;2.50;0.00;;;;;7.63;75.68;99394.84;5045334;28;10871;-66
2023/04/13 03:36:02;;;;;;;;;0.00;0.00;;;;;7.61;75.86;99380.00;5047409;28;10825;-65
2023/04/13 03:38:34;;;;;;;;;0.00;0.00;;;;;7.64;76.14;99384.94;5037331;28;10792;-65
2023/04/13 03:41:00;;;;;;;;;0.25;0.00;;;;;7.64;76.58;99391.13;5044927;28;10715;-64
2023/04/13 03:43:29;;;;;;;;;0.00;0.00;;;;;7.62;75.94;99392.38;5033545;28;10809;-66
2023/04/13 03:46:01;;;;;;;;;1.00;1.00;;;;;7.56;75.95;99390.53;5030617;28;10981;-65
2023/04/13 03:48:29;;;;;;;;;0.00;0.00;;;;;7.57;76.76;99394.84;5035041;28;10832;-64
2023/04/13 03:50:56;;;;;;;;;0.00;0.00;;;;;7.58;76.20;99399.19;5040625;28;10943;-66
2023/04/13 03:53:29;;;;;;;;;0.00;0.00;;;;;7.59;76.87;99400.84;5034767;28;10832;-65
2023/04/13 03:55:56;;;;;;;;;0.75;0.75;;;;;7.57;76.48;99413.59;5034684;28;10789;-66
2023/04/13 03:58:23;;;;;;;;;0.00;0.00;;;;;7.52;76.16;99416.91;5038498;28;10872;-65
2023/04/13 04:00:50;;;;;;;;;0.00;0.00;;;;;7.55;76.46;99416.50;5030318;28;10797;-64
2023/04/13 04:03:24;;;;;;;;;0.00;0.00;;;;;7.58;76.99;99416.06;5042902;28;10885;-65
2023/04/13 04:05:55;;;;;;;;;0.00;0.00;;;;;7.60;76.80;99423.88;5044630;28;10956;-65
2023/04/13 04:08:23;;;;;;;;;0.00;0.00;;;;;7.61;76.70;99425.53;5037094;28;10942;-65
2023/04/13 04:10:53;;;;;;;;;0.00;0.00;;;;;7.63;76.94;99426.97;5044239;28;11540;-65
2023/04/13 04:13:22;;;;;;;;;0.75;0.75;;;;;7.65;77.09;99429.44;5047508;28;11471;-65
2023/04/13 04:15:52;;;;;;;;;1.50;1.50;;;;;7.66;77.13;99425.75;5044854;28;10978;-65
2023/04/13 04:18:18;;;;;;;;;1.25;0.25;;;;;7.65;77.38;99438.28;5033803;28;10961;-65
2023/04/13 04:20:45;;;;;;;;;1.00;1.00;;;;;7.61;76.73;99439.75;5032667;28;10878;-66
2023/04/13 04:23:12;;;;;;;;;4.00;1.75;;;;;7.58;77.07;99434.81;5051218;28;10975;-66
2023/04/13 04:25:45;;;;;;;;;1.00;1.00;;;;;7.56;77.34;99446.75;5039768;28;11560;-66
2023/04/13 04:28:16;;;;;;;;;4.00;1.75;;;;;7.59;77.72;99446.34;5029937;28;10947;-66
2023/04/13 04:30:52;;;;;;;;;0.00;0.00;;;;;7.63;77.22;99451.06;5041962;28;10901;-67
2023/04/13 04:33:22;;;;;;;;;2.00;1.00;;;;;7.54;77.12;99443.50;5050713;28;10862;-66
2023/04/13 04:35:50;;;;;;;;;1.00;1.00;;;;;7.51;77.51;99455.44;5036961;28;10904;-66
2023/04/13 04:38:22;;;;;;;;;1.00;1.00;;;;;7.49;77.02;99456.66;5029717;28;10878;-66
2023/04/13 04:40:56;;;;;;;;;0.25;0.25;;;;;7.49;77.22;99451.31;5043344;28;11586;-66
2023/04/13 04:43:24;;;;;;;;;0.75;0.00;;;;;7.54;77.02;99459.56;5048985;28;10726;-67
2023/04/13 04:45:50;;;;;;;;;2.00;0.00;;;;;7.52;76.85;99466.97;5062953;22;11032;-64
2023/04/13 04:48:19;;;;;;;;;4.00;1.00;;;;;7.55;76.52;99475.41;5032907;28;11004;-66
2023/04/13 04:50:47;;;;;;;;;2.00;2.00;;;;;7.59;76.80;99470.44;5010792;28;10955;-68
2023/04/13 04:53:15;;;;;;;;;0.50;0.50;;;;;7.63;76.61;99472.50;5025952;28;10857;-67
2023/04/13 04:55:45;;;;;;;;;2.00;0.00;;;;;7.60;76.07;99469.41;5014437;28;10963;-67
2023/04/13 04:58:22;;;;;;;;;2.75;1.75;;;;;7.63;76.12;99475.19;4999336;28;10878;-67
2023/04/13 05:00:55;;;;;;;;;0.75;0.00;;;;;7.67;75.84;99483.63;5006483;28;10954;-68
2023/04/13 05:03:22;;;;;;;;;0.00;0.00;;;;;7.72;75.18;99489.16;5019362;28;10868;-66
2023/04/13 05:05:55;;;;;;;;;1.25;1.25;;;;;7.74;75.20;99495.16;5028178;28;10752;-67
2023/04/13 05:08:28;;;;;;;;;1.00;1.00;;;;;7.73;75.55;99506.88;5028974;28;10793;-67
2023/04/13 05:10:54;;;;;;;;;0.00;0.00;;;;;7.68;74.66;99494.13;5016420;28;10874;-69
2023/04/13 05:13:21;;;;;;;;;0.25;0.25;;;;;7.68;75.55;99490.63;5008508;28;10895;-66
2023/04/13 05:16:04;;;;;;;;;0.00;0.00;;;;;7.69;75.70;99501.13;5008115;28;10869;-67
2023/04/13 05:18:43;;;;;;;;;0.00;0.00;;;;;7.65;75.39;99493.72;5009079;28;10807;-66
2023/04/13 05:21:11;;;;;;;;;0.00;0.00;;;;;7.63;75.61;99495.78;5008281;28;10829;-66
2023/04/13 05:23:38;;;;;;;;;1.00;1.00;;;;;7.57;75.00;99507.31;5009645;28;10793;-67
2023/04/13 05:26:09;;;;;;;;;0.50;0.50;;;;;7.56;75.10;99514.53;5004045;28;10800;-66
2023/04/13 05:28:35;;;;;;;;;0.75;0.75;;;;;7.61;74.74;99516.56;5018506;28;10827;-66
2023/04/13 05:31:03;;;;;;;;;0.00;0.00;;;;;7.66;74.43;99522.16;5016886;28;10723;-69
2023/04/13 05:33:33;;;;;;;;;0.00;0.00;;;;;7.69;74.99;99519.88;5008780;28;10668;-70
2023/04/13 05:36:01;;;;;;;;;0.00;0.00;;;;;7.68;74.42;99522.75;5008393;28;10807;-68
2023/04/13 05:38:27;;;;;;;;;0.00;0.00;;;;;7.66;74.57;99524.84;5010158;28;10782;-70
2023/04/13 05:40:56;;;;;;;;;1.00;0.00;;;;;7.66;75.45;99531.00;4995457;28;10815;-70
2023/04/13 05:43:23;;;;;;;;;1.00;1.00;;;;;7.71;75.10;99532.25;5011505;28;11812;-70
2023/04/13 05:45:53;;;;;;;;;0.75;0.75;;;;;7.72;75.01;99529.34;5003489;28;10669;-69
2023/04/13 05:48:20;;;;;;;;;2.25;1.00;;;;;7.71;75.24;99535.75;5007664;28;10877;-69
2023/04/13 05:50:54;;;;;;;;;3.50;0.00;;;;;7.77;75.55;99545.63;4994563;28;10906;-69
2023/04/13 05:53:21;;;;;;;;;1.00;1.00;;;;;7.74;75.93;99548.72;5008723;28;10807;-70
2023/04/13 05:55:53;;;;;;;;;2.00;0.00;;;;;7.69;76.13;99549.31;5008326;28;10718;-69
2023/04/13 05:58:20;;;;;;;;;2.75;0.00;;;;;7.69;76.70;99560.03;5008534;28;10684;-69
2023/04/13 06:00:53;;;;;;;;;1.00;1.00;;;;;7.74;77.16;99556.75;5012124;28;10907;-69
2023/04/13 06:03:28;;;;;;;;;0.75;0.00;;;;;7.73;76.78;99557.78;5008707;28;10718;-69
2023/04/13 06:05:55;;;;;;;;;0.00;0.00;;;;;7.73;77.15;99565.00;5008315;28;10901;-70
2023/04/13 06:08:22;;;;;;;;;0.00;0.00;;;;;7.76;77.31;99568.09;5008632;28;10713;-70
2023/04/13 06:10:50;;;;;;;;;0.00;0.00;;;;;7.75;76.89;99565.63;5008354;28;11036;-69
2023/04/13 06:13:16;;;;;;;;;0.00;0.00;;;;;7.77;77.30;99572.41;5007840;28;10894;-69
2023/04/13 06:15:45;;;;;;;;;0.00;0.00;;;;;7.85;77.21;99577.53;5020128;28;11505;-69
2023/04/13 06:18:11;;;;;;;;;0.00;0.00;;;;;7.78;77.11;99590.16;5028299;28;10790;-68
2023/04/13 06:20:38;;;;;;;;;1.00;1.00;;;;;7.81;77.09;99578.16;5019980;28;10765;-70
2023/04/13 06:23:04;;;;;;;;;0.75;0.75;;;;;7.83;76.74;99584.97;5009732;28;10764;-70
2023/04/13 06:25:31;;;;;;;;;0.00;0.00;;;;;7.79;77.73;99586.44;5009182;28;11561;-68
2023/04/13 06:28:00;;;;;;;;;1.00;0.00;;;;;7.85;77.77;99582.09;5007702;28;10781;-70
2023/04/13 06:30:31;;;;;;;;;0.50;0.50;;;;;7.88;77.91;99593.22;5009496;28;10738;-69
2023/04/13 06:33:03;;;;;;;;;0.00;0.00;;;;;7.90;77.87;99593.84;5029926;28;10806;-70
2023/04/13 06:35:30;;;;;;;;;5.00;1.00;;;;;7.93;77.71;99590.72;5031138;28;10881;-69
2023/04/13 06:38:00;;;;;;;;;0.00;0.00;;;;;7.97;77.62;99604.53;5018034;28;11705;-69
2023/04/13 06:40:36;;;;;;;;;0.25;0.25;;;;;7.94;77.67;99599.63;4992500;28;10741;-68
2023/04/13 06:43:06;;;;;;;;;0.00;0.00;;;;;8.01;77.59;99615.66;4992294;28;10749;-69
2023/04/13 06:45:56;;;;;;;;;0.50;0.50;;;;;8.07;77.44;99626.41;4991702;28;10582;-69
2023/04/13 06:48:25;;;;;;;;;1.00;0.00;;;;;7.95;77.28;99625.38;4991999;28;11421;-69
2023/04/13 06:50:58;;;;;;;;;1.00;1.00;;;;;7.97;77.51;99619.78;4999694;28;10709;-70
2023/04/13 06:53:26;;;;;;;;;1.00;0.00;;;;;8.03;76.82;99624.34;5011948;28;10907;-68
2023/04/13 06:55:52;;;;;;;;;0.00;0.00;;;;;8.18;77.57;99630.28;5011554;28;10876;-70
2023/04/13 06:58:20;;;;;;;;;0.00;0.00;;;;;8.26;77.50;99623.88;5012853;28;10989;-69
2023/04/13 07:00:48;;;;;;;;;0.00;0.00;;;;;8.24;76.79;99629.47;5011601;28;11568;-68
2023/04/13 07:03:14;;;;;;;;;0.00;0.00;;;;;8.35;76.61;99633.38;5011314;28;10757;-70
2023/04/13 07:05:42;;;;;;;;;0.50;0.50;;;;;8.29;76.46;99635.00;5011517;28;11424;-70
2023/04/13 07:08:12;;;;;;;;;2.00;0.50;;;;;8.18;76.16;99635.66;5013726;28;10651;-68
2023/04/13 07:10:41;;;;;;;;;0.25;0.25;;;;;8.17;76.88;99647.41;5011403;28;10676;-69
2023/04/13 07:13:18;;;;;;;;;1.00;0.00;;;;;8.23;76.55;99646.59;5011579;28;10541;-70
2023/04/13 07:15:45;;;;;;;;;0.50;0.00;;;;;8.26;76.20;99656.88;5012429;28;11437;-69
2023/04/13 07:18:12;;;;;;;;;1.00;0.00;;;;;8.36;76.15;99656.47;5011398;28;10734;-69
2023/04/13 07:20:38;;;;;;;;;0.00;0.00;;;;;8.44;75.98;99655.44;5012069;28;10778;-69
2023/04/13 07:23:06;;;;;;;;;0.00;0.00;;;;;8.55;75.83;99660.19;5010796;28;10518;-69
2023/04/13 07:25:33;;;;;;;;;2.00;1.00;;;;;8.61;75.65;99667.38;5026687;28;10596;-69
2023/04/13 07:28:00;;;;;;;;;5.00;1.00;;;;;8.52;75.51;99677.50;5030680;28;10582;-68
2023/04/13 07:30:27;;;;;;;;;1.00;1.00;;;;;8.52;76.30;99666.78;5030530;28;11345;-69
2023/04/13 07:32:54;;;;;;;;;1.25;1.25;;;;;8.54;76.62;99677.28;5030673;28;10506;-70
2023/04/13 07:35:21;;;;;;;;;1.00;1.00;;;;;8.56;76.92;99675.22;5031681;28;10506;-71
2023/04/13 07:37:48;;;;;;;;;1.00;1.00;;;;;8.59;76.60;99677.50;5028064;28;10695;-66
2023/04/13 07:40:19;;;;;;;;;1.00;1.00;;;;;8.57;76.63;99682.25;5010456;28;10580;-70
2023/04/13 07:42:49;;;;;;;;;1.00;1.00;;;;;8.53;76.69;99689.88;5009642;28;10595;-67
2023/04/13 07:45:16;;;;;;;;;5.00;1.25;;;;;8.60;76.28;99684.50;5009785;28;10755;-68
2023/04/13 07:47:44;;;;;;;;;1.25;1.00;;;;;8.60;75.94;99689.88;5010727;28;10675;-69
2023/04/13 07:50:10;;;;;;;;;1.00;1.00;;;;;8.68;76.09;99704.94;5007349;28;10856;-65
2023/04/13 07:52:38;;;;;;;;;0.75;0.75;;;;;8.76;75.54;99713.56;4991016;28;10616;-68
2023/04/13 07:55:06;;;;;;;;;1.00;0.25;;;;;8.83;75.37;99726.94;4990349;28;10603;-68
2023/04/13 07:57:36;;;;;;;;;1.50;1.00;;;;;8.86;74.92;99734.59;4991052;28;10516;-69
2023/04/13 08:00:05;;;;;;;;;3.00;1.00;;;;;8.64;75.39;99750.13;4990692;28;10540;-68
2023/04/13 08:02:39;;;;;;;;;2.25;1.25;;;;;8.58;75.63;99740.22;4992089;28;11332;-68
2023/04/13 08:05:10;;;;;;;;;1.50;1.50;;;;;8.59;76.70;99747.25;5012241;28;11277;-69
2023/04/13 08:07:38;;;;;;;;;0.25;0.25;;;;;8.62;77.39;99747.63;5010081;28;10741;-68
2023/04/13 08:10:07;;;;;;;;;2.50;1.00;;;;;8.68;76.88;99753.22;5010094;28;10557;-70
2023/04/13 08:12:33;;;;;;;;;1.00;1.00;;;;;8.84;77.06;99760.81;5010250;28;11243;-70
2023/04/13 08:15:00;;;;;;;;;0.25;0.00;;;;;8.88;76.41;99780.84;5012343;28;10436;-69
2023/04/13 08:17:26;;;;;;;;;1.00;1.00;;;;;8.77;75.31;99776.91;5010125;28;11215;-70
2023/04/13 08:19:53;;;;;;;;;1.00;1.00;;;;;8.73;75.42;99789.09;5010164;28;10572;-66
2023/04/13 08:22:19;;;;;;;;;2.00;2.00;;;;;8.64;75.51;99782.31;4993649;28;10441;-66
2023/04/13 08:24:46;;;;;;;;;3.00;2.00;;;;;8.60;75.76;99781.91;5009617;28;10445;-68
2023/04/13 08:27:12;;;;;;;;;1.75;0.25;;;;;8.64;75.18;99791.19;5010010;28;10644;-67
2023/04/13 08:29:39;;;;;;;;;4.00;1.00;;;;;8.71;75.63;99807.28;5011464;28;10682;-67
2023/04/13 08:32:05;;;;;;;;;1.00;1.00;;;;;8.66;75.04;99813.25;5009986;28;10661;-66
2023/04/13 08:34:33;;;;;;;;;1.25;1.00;;;;;8.53;75.66;99815.13;5009370;28;10628;-66
2023/04/13 08:37:00;;;;;;;;;0.75;0.75;;;;;8.61;75.46;99821.09;5009489;28;10564;-70
2023/04/13 08:39:30;;;;;;;;;3.25;1.25;;;;;8.58;74.68;99823.34;5009368;28;10467;-68
2023/04/13 08:41:57;;;;;;;;;3.25;2.00;;;;;8.58;74.12;99821.50;5011074;28;10562;-70
2023/04/13 08:44:28;;;;;;;;;5.00;1.75;;;;;8.66;74.80;99834.72;5009571;28;11298;-67
2023/04/13 08:46:54;;;;;;;;;1.00;1.00;;;;;8.68;73.57;99831.00;5008640;28;10547;-67
2023/04/13 08:49:28;;;;;;;;;2.50;2.00;;;;;8.73;72.97;99839.25;5008788;28;10689;-68
2023/04/13 08:52:05;;;;;;;;;3.00;2.00;;;;;8.84;72.66;99844.00;5009003;28;10646;-67
2023/04/13 08:54:33;;;;;;;;;2.50;1.50;;;;;8.82;72.28;99852.25;5010143;28;11340;-66
2023/04/13 08:57:03;;;;;;;;;4.00;2.50;;;;;8.66;72.00;99858.84;5009362;28;10684;-66
2023/04/13 08:59:30;;;;;;;;;1.00;0.00;;;;;8.66;71.59;99866.91;5009373;28;10683;-68
2023/04/13 09:02:00;;;;;;;;;2.00;1.00;;;;;8.71;71.81;99874.34;5009387;28;10513;-68
2023/04/13 09:04:34;;;;;;;;;2.50;1.00;;;;;8.75;71.67;99877.44;5009357;28;10647;-71
2023/04/13 09:07:03;;;;;;;;;1.50;1.50;;;;;8.77;72.03;99881.56;5012324;28;10613;-66
2023/04/13 09:09:37;;;;;;;;;1.75;1.00;;;;;8.84;71.93;99885.09;5009393;28;10727;-67
2023/04/13 09:12:04;;;;;;;;;1.25;1.25;;;;;8.86;71.72;99884.88;5009309;28;10552;-70
2023/04/13 09:14:31;;;;;;;;;1.75;1.50;;;;;8.80;71.07;99889.22;5009537;28;10523;-67
2023/04/13 09:16:58;;;;;;;;;3.50;1.75;;;;;8.81;71.01;99896.22;5015307;28;10561;-69
2023/04/13 09:19:32;;;;;;;;;2.00;2.00;;;;;8.96;70.92;99893.34;5015291;28;10483;-69
2023/04/13 09:22:12;;;;;;;;;2.25;1.25;;;;;9.23;70.33;99896.81;5009236;28;10625;-67
2023/04/13 09:24:40;;;;;;;;;2.00;2.00;;;;;9.43;70.09;99901.34;5010192;28;10504;-72
2023/04/13 09:27:19;;;;;;;;;0.50;0.50;;;;;9.46;69.34;99912.50;5010154;28;11252;-71
2023/04/13 09:29:51;;;;;;;;;2.00;2.00;;;;;9.60;68.94;99915.97;5010361;28;10439;-68
2023/04/13 09:32:19;;;;;;;;;2.00;1.00;;;;;9.76;67.77;99925.44;5011312;28;10382;-69
2023/04/13 09:34:56;;;;;;;;;1.75;1.50;;;;;9.90;67.41;99909.06;5012249;28;10509;-68
2023/04/13 09:37:23;;;;;;;;;0.25;0.00;;;;;9.98;65.87;99929.50;5010273;28;10450;-69
2023/04/13 09:39:51;;;;;;;;;3.50;1.50;;;;;10.14;66.31;99915.56;5010295;28;10466;-69
2023/04/13 09:42:18;;;;;;;;;1.00;1.00;;;;;10.21;65.52;99922.78;5010264;28;10292;-70
2023/04/13 09:44:54;;;;;;;;;0.75;0.50;;;;;10.23;65.06;99936.84;5010170;28;10232;-69
2023/04/13 09:47:21;;;;;;;;;2.75;1.00;;;;;10.29;64.61;99936.84;5011197;28;10247;-65
2023/04/13 09:49:47;;;;;;;;;4.50;1.50;;;;;10.32;64.74;99947.16;5010357;28;10224;-67
2023/04/13 09:52:21;;;;;;;;;1.25;1.00;;;;;10.38;64.22;99951.69;5010077;28;10238;-66
2023/04/13 09:54:53;;;;;;;;;0.00;0.00;;;;;10.37;63.46;99958.13;5010049;28;10049;-69
2023/04/13 09:57:27;;;;;;;;;1.00;1.00;;;;;10.48;64.17;99950.41;5009984;28;10060;-69
2023/04/13 09:59:55;;;;;;;;;0.75;0.75;;;;;10.65;64.23;99954.22;5016437;28;10133;-70
2023/04/13 10:02:22;;;;;;;;;1.00;1.00;;;;;10.66;63.39;99955.91;5029657;28;9996;-67
2023/04/13 10:04:48;;;;;;;;;2.75;1.00;;;;;10.61;63.90;99974.53;5030517;28;10916;-70
2023/04/13 10:07:15;;;;;;;;;2.00;2.00;;;;;10.66;63.48;99965.84;5033490;28;10399;-68
2023/04/13 10:09:44;;;;;;;;;2.00;2.00;;;;;10.84;63.71;99964.06;5022233;28;10252;-69
2023/04/13 10:12:15;;;;;;;;;2.00;0.50;;;;;11.09;62.08;99982.09;5012533;28;10084;-68
2023/04/13 10:14:47;;;;;;;;;0.75;0.75;;;;;11.20;61.67;99978.72;5016109;28;10065;-67
2023/04/13 10:17:20;;;;;;;;;1.75;0.50;;;;;11.02;60.56;99998.34;5013394;28;10886;-67
2023/04/13 10:19:51;;;;;;;;;0.25;0.00;;;;;10.80;61.30;99995.13;5010652;28;10262;-67
2023/04/13 10:22:21;;;;;;;;;1.00;1.00;;;;;10.64;61.49;99999.16;5013016;28;9998;-67
2023/04/13 10:24:51;;;;;;;;;1.50;1.50;;;;;10.59;62.24;100004.38;5013244;28;10219;-67
2023/04/13 10:27:20;;;;;;;;;2.25;2.00;;;;;10.55;61.76;100010.41;5015068;28;10883;-67
2023/04/13 10:29:47;;;;;;;;;2.00;2.00;;;;;10.55;61.71;100022.00;5031013;28;10333;-71
2023/04/13 10:32:22;;;;;;;;;5.00;1.00;;;;;10.64;62.15;100027.94;5033095;28;10178;-69
2023/04/13 10:34:48;;;;;;;;;2.00;1.00;;;;;10.77;61.93;100037.81;5032759;28;10293;-71
2023/04/13 10:37:23;;;;;;;;;1.00;1.00;;;;;10.53;61.16;100036.69;5032908;28;10148;-70
2023/04/13 10:40:04;;;;;;;;;2.00;1.00;;;;;10.42;61.47;100053.53;5031650;28;10049;-71
2023/04/13 10:43:00;;;;;;;;;1.25;0.50;;;;;10.42;60.96;100054.34;5026658;28;10087;-71
2023/04/13 10:45:27;;;;;;;;;0.25;0.25;;;;;10.32;61.22;100059.31;5016028;28;10157;-68
2023/04/13 10:47:55;;;;;;;;;0.75;0.75;;;;;10.26;61.51;100069.06;5005200;28;10215;-68
2023/04/13 10:50:23;;;;;;;;;0.25;0.25;;;;;10.20;61.49;100075.25;5012726;28;10072;-66
2023/04/13 10:53:03;;;;;;;;;2.25;2.25;;;;;10.21;61.55;100074.25;4993732;28;10157;-68
2023/04/13 10:55:31;;;;;;;;;2.50;2.00;;;;;10.22;61.47;100080.44;4992793;28;10366;-67
2023/04/13 10:57:59;;;;;;;;;1.00;1.00;;;;;10.22;61.39;100085.81;4994605;28;10276;-66
2023/04/13 11:00:29;;;;;;;;;0.00;0.00;;;;;10.27;61.69;100104.88;5007306;28;10277;-67
2023/04/13 11:03:13;;;;;;;;;2.75;1.00;;;;;10.39;61.47;100104.00;5008163;28;10281;-68
2023/04/13 11:05:42;;;;;;;;;2.00;1.75;;;;;10.34;61.34;100117.28;5019274;28;10390;-68
2023/04/13 11:08:08;;;;;;;;;1.00;1.00;;;;;10.34;61.57;100111.88;5032452;28;10193;-66
2023/04/13 11:10:35;;;;;;;;;2.00;1.00;;;;;10.51;61.70;100114.13;5030867;28;10336;-67
2023/04/13 11:13:01;;;;;;;;;2.00;2.00;;;;;10.49;61.52;100118.88;5032205;28;10229;-67
2023/04/13 11:15:29;;;;;;;;;1.00;0.75;;;;;10.44;61.21;100116.00;5031681;28;10219;-67
2023/04/13 11:17:57;;;;;;;;;1.00;1.00;;;;;10.58;61.17;100112.25;5032097;28;10232;-67
2023/04/13 11:20:34;;;;;;;;;1.00;1.00;;;;;10.70;61.16;100123.19;5027119;28;10302;-67
2023/04/13 11:23:05;;;;;;;;;1.00;1.00;;;;;10.72;60.82;100119.22;5032060;28;9989;-67
2023/04/13 11:25:35;;;;;;;;;4.00;4.00;;;;;10.72;60.44;100140.75;5031403;28;10163;-68
2023/04/13 11:28:03;;;;;;;;;3.50;1.50;;;;;10.67;60.25;100137.06;5031972;28;10274;-68
2023/04/13 11:30:33;;;;;;;;;1.50;1.00;;;;;10.69;60.10;100143.88;5031866;28;10222;-68
2023/04/13 11:33:00;;;;;;;;;3.50;1.00;;;;;10.80;60.47;100131.63;5030439;28;10299;-67
2023/04/13 11:35:26;;;;;;;;;1.00;0.00;;;;;10.92;59.83;100147.94;5029841;28;10062;-67
2023/04/13 11:37:54;;;;;;;;;0.75;0.75;;;;;11.03;59.68;100153.47;5031554;28;10012;-67
2023/04/13 11:40:24;;;;;;;;;3.00;1.50;;;;;11.16;59.11;100157.97;5021763;28;10214;-67
2023/04/13 11:42:53;;;;;;;;;0.25;0.25;;;;;11.14;58.36;100168.16;5011667;28;10142;-67
2023/04/13 11:45:22;;;;;;;;;0.75;0.75;;;;;11.21;58.98;100168.94;5011286;28;10106;-67
2023/04/13 11:47:50;;;;;;;;;0.00;0.00;;;;;11.23;59.50;100169.56;5012639;28;9911;-67
2023/04/13 11:50:18;;;;;;;;;0.00;0.00;;;;;11.18;58.67;100182.84;5011743;28;10149;-67